Time;durP1;ratioP1;P1;durP2;ratioP2;P2;SDS_P1;SDS_P2;PMS_P1;PMS_P2;Temp;Humidity;BMP_temperature;BMP_pressure;BME280_temperature;BME280_humidity;BME280_pressure;Samples;Min_cycle;Max_cycle;Signal;HPM_P1;HPM_P2
2023/05/18 00:01:59;;;;;;;56.93;2.97;;;;;;;;;;5073726;28;20495;-69
2023/05/18 00:04:26;;;;;;;57.37;2.47;;;;;;;;;;5073671;28;20458;-69
2023/05/18 00:06:55;;;;;;;57.60;3.10;;;;;;;;;;5073317;28;20443;-69
2023/05/18 00:09:24;;;;;;;57.57;2.70;;;;;;;;;;5071716;28;21238;-69
2023/05/18 00:11:51;;;;;;;57.23;2.43;;;;;;;;;;5073315;28;20471;-68
2023/05/18 00:14:19;;;;;;;57.80;3.20;;;;;;;;;;5073208;28;20948;-68
2023/05/18 00:16:46;;;;;;;57.43;2.90;;;;;;;;;;5073310;28;20490;-69
2023/05/18 00:19:14;;;;;;;56.80;2.87;;;;;;;;;;5072622;28;20576;-68
2023/05/18 00:21:41;;;;;;;59.57;3.23;;;;;;;;;;5072791;28;20532;-69
2023/05/18 00:24:09;;;;;;;56.77;2.57;;;;;;;;;;5072749;28;20517;-69
2023/05/18 00:26:38;;;;;;;57.40;2.80;;;;;;;;;;5072718;28;20443;-69
2023/05/18 00:29:06;;;;;;;57.27;2.60;;;;;;;;;;5072292;28;20443;-69
2023/05/18 00:31:35;;;;;;;57.57;2.60;;;;;;;;;;5073007;28;20476;-69
2023/05/18 00:34:03;;;;;;;57.90;3.20;;;;;;;;;;5073092;28;20452;-69
2023/05/18 00:36:30;;;;;;;57.57;2.60;;;;;;;;;;5072470;28;20528;-68
2023/05/18 00:38:57;;;;;;;57.57;2.93;;;;;;;;;;5072023;28;20459;-69
2023/05/18 00:41:25;;;;;;;57.50;3.03;;;;;;;;;;5072552;28;20475;-69
2023/05/18 00:43:53;;;;;;;57.40;2.60;;;;;;;;;;5072948;28;20596;-68
2023/05/18 00:46:20;;;;;;;56.70;2.33;;;;;;;;;;5072591;28;20443;-69
2023/05/18 00:48:49;;;;;;;57.58;2.55;;;;;;;;;;5072338;28;20832;-69
2023/05/18 00:51:16;;;;;;;56.93;2.93;;;;;;;;;;5072188;28;20225;-69
2023/05/18 00:53:43;;;;;;;59.50;4.40;;;;;;;;;;5072419;28;20454;-68
2023/05/18 00:56:11;;;;;;;57.60;3.10;;;;;;;;;;5072482;28;20510;-69
2023/05/18 00:58:38;;;;;;;56.57;2.60;;;;;;;;;;5071712;28;20453;-69
2023/05/18 01:01:08;;;;;;;57.40;2.80;;;;;;;;;;5072206;28;20467;-69
2023/05/18 01:03:36;;;;;;;57.57;2.73;;;;;;;;;;5072314;28;20457;-69
2023/05/18 01:06:04;;;;;;;57.40;2.67;;;;;;;;;;5072311;28;20456;-69
2023/05/18 01:08:32;;;;;;;56.93;3.10;;;;;;;;;;5071682;28;20213;-69
2023/05/18 01:11:04;;;;;;;57.37;2.90;;;;;;;;;;5072283;28;20479;-69
2023/05/18 01:13:36;;;;;;;57.33;2.85;;;;;;;;;;5072065;28;20455;-69
2023/05/18 01:16:07;;;;;;;58.27;3.37;;;;;;;;;;5072017;28;20271;-68
2023/05/18 01:18:38;;;;;;;57.65;2.92;;;;;;;;;;5071685;28;20451;-68
2023/05/18 01:21:12;;;;;;;57.47;2.77;;;;;;;;;;5072210;28;20229;-68
2023/05/18 01:23:54;;;;;;;57.27;2.80;;;;;;;;;;5071119;28;20500;-68
2023/05/18 01:26:28;;;;;;;56.90;2.70;;;;;;;;;;5072323;28;20443;-69
2023/05/18 01:28:56;;;;;;;57.42;2.72;;;;;;;;;;5071240;28;20236;-69
2023/05/18 01:31:23;;;;;;;57.37;2.77;;;;;;;;;;5071615;28;20232;-69
2023/05/18 01:33:51;;;;;;;57.65;3.25;;;;;;;;;;5071796;28;20462;-69
2023/05/18 01:36:18;;;;;;;57.60;3.00;;;;;;;;;;5071521;28;20251;-69
2023/05/18 01:38:45;;;;;;;56.87;2.43;;;;;;;;;;5070243;28;20205;-68
2023/05/18 01:41:15;;;;;;;56.80;2.70;;;;;;;;;;5071278;28;20471;-69
2023/05/18 01:43:53;;;;;;;57.70;2.93;;;;;;;;;;5071707;28;20449;-68
2023/05/18 01:46:25;;;;;;;57.07;2.70;;;;;;;;;;5068358;28;20446;-69
2023/05/18 01:48:55;;;;;;;57.27;2.50;;;;;;;;;;5071094;28;20427;-68
2023/05/18 01:51:27;;;;;;;57.17;3.60;;;;;;;;;;5071321;28;20470;-69
2023/05/18 01:53:58;;;;;;;57.23;2.33;;;;;;;;;;5071498;28;20235;-69
2023/05/18 01:56:25;;;;;;;57.70;2.38;;;;;;;;;;5071525;28;20464;-69
2023/05/18 01:58:54;;;;;;;57.53;2.90;;;;;;;;;;5070348;28;20205;-68
2023/05/18 02:01:22;;;;;;;57.13;2.60;;;;;;;;;;5071487;28;20478;-69
2023/05/18 02:03:50;;;;;;;57.60;3.53;;;;;;;;;;5071510;28;20943;-68
2023/05/18 02:06:17;;;;;;;57.13;2.55;;;;;;;;;;5071429;28;20201;-69
2023/05/18 02:08:44;;;;;;;58.28;3.90;;;;;;;;;;5070447;28;20227;-69
2023/05/18 02:11:11;;;;;;;63.60;4.18;;;;;;;;;;5071080;28;20239;-68
2023/05/18 02:13:38;;;;;;;57.60;2.80;;;;;;;;;;5071588;28;20215;-69
2023/05/18 02:16:07;;;;;;;56.97;2.58;;;;;;;;;;5070806;28;20733;-69
2023/05/18 02:18:35;;;;;;;58.17;3.30;;;;;;;;;;5070507;28;20231;-68
2023/05/18 02:21:02;;;;;;;58.08;3.10;;;;;;;;;;5070597;28;20243;-69
2023/05/18 02:23:30;;;;;;;58.40;4.15;;;;;;;;;;5070643;28;20690;-69
2023/05/18 02:25:57;;;;;;;57.70;2.70;;;;;;;;;;5071088;28;20197;-69
2023/05/18 02:28:24;;;;;;;57.40;3.10;;;;;;;;;;5070966;28;20299;-68
2023/05/18 02:30:52;;;;;;;57.60;3.57;;;;;;;;;;5069775;28;20239;-69
2023/05/18 02:33:25;;;;;;;57.35;2.80;;;;;;;;;;5070887;28;20953;-69
2023/05/18 02:35:53;;;;;;;58.17;4.75;;;;;;;;;;5070827;28;20283;-68
2023/05/18 02:38:20;;;;;;;57.50;2.83;;;;;;;;;;5069952;28;20201;-69
2023/05/18 02:40:47;;;;;;;57.28;2.55;;;;;;;;;;5070122;28;20229;-68
2023/05/18 02:43:14;;;;;;;57.38;2.70;;;;;;;;;;5070771;28;20259;-69
2023/05/18 02:45:42;;;;;;;57.60;2.78;;;;;;;;;;5071247;28;20295;-69
2023/05/18 02:48:09;;;;;;;57.90;3.13;;;;;;;;;;5071105;28;20558;-68
2023/05/18 02:50:37;;;;;;;57.40;2.67;;;;;;;;;;5071176;28;20229;-69
2023/05/18 02:53:04;;;;;;;57.13;2.78;;;;;;;;;;5074534;28;20579;-68
2023/05/18 02:55:31;;;;;;;57.80;3.33;;;;;;;;;;5074721;28;20209;-68
2023/05/18 02:57:59;;;;;;;57.70;3.15;;;;;;;;;;5074209;28;20221;-69
2023/05/18 03:00:28;;;;;;;57.38;2.70;;;;;;;;;;5074056;28;20225;-68
2023/05/18 03:02:56;;;;;;;57.60;2.65;;;;;;;;;;5074578;28;20228;-69
2023/05/18 03:05:23;;;;;;;57.90;3.22;;;;;;;;;;5074645;28;20581;-69
2023/05/18 03:07:53;;;;;;;57.33;2.97;;;;;;;;;;5074795;28;20203;-68
2023/05/18 03:10:20;;;;;;;57.65;2.72;;;;;;;;;;5073579;28;20270;-69
2023/05/18 03:12:47;;;;;;;57.90;3.17;;;;;;;;;;5074689;28;20205;-69
2023/05/18 03:15:15;;;;;;;57.90;2.90;;;;;;;;;;5074307;28;20209;-69
2023/05/18 03:17:42;;;;;;;57.80;3.28;;;;;;;;;;5074250;28;20335;-68
2023/05/18 03:20:10;;;;;;;57.60;2.80;;;;;;;;;;5073492;28;20634;-69
2023/05/18 03:22:37;;;;;;;57.80;2.60;;;;;;;;;;5074285;28;20212;-69
2023/05/18 03:25:06;;;;;;;57.78;3.20;;;;;;;;;;5074029;28;20304;-68
2023/05/18 03:27:34;;;;;;;57.22;3.03;;;;;;;;;;5074102;28;20291;-69
2023/05/18 03:30:01;;;;;;;57.70;3.05;;;;;;;;;;5073411;28;20221;-68
2023/05/18 03:32:30;;;;;;;58.35;4.15;;;;;;;;;;5074097;28;20229;-69
2023/05/18 03:34:59;;;;;;;57.53;3.00;;;;;;;;;;5073971;28;20678;-68
2023/05/18 03:37:26;;;;;;;57.97;3.97;;;;;;;;;;5073764;28;20232;-69
2023/05/18 03:39:55;;;;;;;57.80;3.28;;;;;;;;;;5073225;28;20216;-68
2023/05/18 03:42:24;;;;;;;57.38;2.72;;;;;;;;;;5073808;28;20724;-69
2023/05/18 03:44:51;;;;;;;57.70;2.92;;;;;;;;;;5074025;28;20717;-69
2023/05/18 03:47:18;;;;;;;57.47;2.92;;;;;;;;;;5073837;28;20209;-69
2023/05/18 03:49:45;;;;;;;57.47;2.80;;;;;;;;;;5072952;28;20582;-69
2023/05/18 03:52:14;;;;;;;57.65;2.92;;;;;;;;;;5073692;28;20231;-69
2023/05/18 03:54:42;;;;;;;57.72;3.10;;;;;;;;;;5073714;28;20850;-68
2023/05/18 03:57:10;;;;;;;57.45;3.10;;;;;;;;;;5073790;28;20635;-68
2023/05/18 03:59:38;;;;;;;57.45;2.90;;;;;;;;;;5073105;28;20213;-68
2023/05/18 04:02:06;;;;;;;57.70;3.20;;;;;;;;;;5072874;28;20225;-68
2023/05/18 04:04:33;;;;;;;57.25;3.00;;;;;;;;;;5073318;28;20300;-68
2023/05/18 04:07:01;;;;;;;57.13;2.75;;;;;;;;;;5073713;28;20204;-68
2023/05/18 04:09:28;;;;;;;58.83;4.25;;;;;;;;;;5073240;28;20263;-68
2023/05/18 04:11:55;;;;;;;57.47;2.90;;;;;;;;;;5073369;28;20295;-69
2023/05/18 04:14:23;;;;;;;57.58;2.78;;;;;;;;;;5073402;28;20209;-68
2023/05/18 04:16:52;;;;;;;58.38;3.85;;;;;;;;;;5073457;28;20526;-69
2023/05/18 04:19:20;;;;;;;57.90;3.30;;;;;;;;;;5072380;28;20201;-68
2023/05/18 04:21:47;;;;;;;57.45;2.95;;;;;;;;;;5073027;28;20229;-68
2023/05/18 04:24:15;;;;;;;57.50;2.97;;;;;;;;;;5073163;28;20224;-68
2023/05/18 04:26:42;;;;;;;57.60;2.88;;;;;;;;;;5073363;28;20580;-69
2023/05/18 04:29:12;;;;;;;57.58;3.20;;;;;;;;;;5072181;28;20211;-68
2023/05/18 04:31:41;;;;;;;58.28;3.40;;;;;;;;;;5072749;28;20236;-69
2023/05/18 04:34:12;;;;;;;57.40;2.83;;;;;;;;;;5073146;28;20239;-68
2023/05/18 04:36:41;;;;;;;57.55;3.20;;;;;;;;;;5073003;28;20224;-68
2023/05/18 04:39:08;;;;;;;57.60;3.00;;;;;;;;;;5072036;28;20202;-68
2023/05/18 04:41:35;;;;;;;58.03;3.05;;;;;;;;;;5072974;28;20706;-68
2023/05/18 04:44:03;;;;;;;57.40;3.33;;;;;;;;;;5072859;28;20215;-69
2023/05/18 04:46:31;;;;;;;57.28;2.63;;;;;;;;;;5072984;28;20228;-68
2023/05/18 04:49:00;;;;;;;56.83;2.50;;;;;;;;;;5071833;28;20303;-69
2023/05/18 04:51:28;;;;;;;57.40;2.88;;;;;;;;;;5072273;28;20233;-68
2023/05/18 04:53:55;;;;;;;57.80;2.70;;;;;;;;;;5072819;28;20228;-68
2023/05/18 04:56:22;;;;;;;57.28;2.60;;;;;;;;;;5072335;28;20216;-68
2023/05/18 04:58:50;;;;;;;56.88;2.65;;;;;;;;;;5071544;28;20209;-68
2023/05/18 05:01:17;;;;;;;58.10;3.53;;;;;;;;;;5072589;28;20279;-68
2023/05/18 05:03:44;;;;;;;57.60;2.67;;;;;;;;;;5072435;28;20588;-69
2023/05/18 05:06:12;;;;;;;57.63;2.70;;;;;;;;;;5072328;28;20594;-69
2023/05/18 05:08:40;;;;;;;57.67;3.05;;;;;;;;;;5071491;28;20198;-68
2023/05/18 05:11:07;;;;;;;57.08;2.50;;;;;;;;;;5072018;28;20247;-68
2023/05/18 05:13:35;;;;;;;57.17;2.60;;;;;;;;;;5071283;28;20207;-68
2023/05/18 05:16:02;;;;;;;56.97;2.40;;;;;;;;;;5072300;28;20209;-68
2023/05/18 05:18:29;;;;;;;57.17;2.70;;;;;;;;;;5071625;28;20792;-68
2023/05/18 05:20:58;;;;;;;58.45;3.95;;;;;;;;;;5071852;28;20221;-68
2023/05/18 05:23:25;;;;;;;57.13;2.90;;;;;;;;;;5072047;28;20205;-68
2023/05/18 05:25:53;;;;;;;58.00;2.95;;;;;;;;;;5072164;28;20201;-69
2023/05/18 05:28:20;;;;;;;58.20;3.28;;;;;;;;;;5071740;28;20201;-68
2023/05/18 05:30:47;;;;;;;57.28;2.58;;;;;;;;;;5071258;28;20221;-68
2023/05/18 05:33:15;;;;;;;57.60;2.67;;;;;;;;;;5071849;28;20207;-69
2023/05/18 05:35:42;;;;;;;57.38;3.35;;;;;;;;;;5071978;28;20454;-68
2023/05/18 05:38:09;;;;;;;57.97;2.90;;;;;;;;;;5071447;28;20232;-69
2023/05/18 05:40:36;;;;;;;57.15;2.75;;;;;;;;;;5071176;28;20247;-69
2023/05/18 05:43:05;;;;;;;58.10;3.30;;;;;;;;;;5072010;28;20205;-69
2023/05/18 05:45:32;;;;;;;57.50;2.78;;;;;;;;;;5071812;28;20208;-69
2023/05/18 05:47:59;;;;;;;56.60;2.67;;;;;;;;;;5071669;28;20212;-69
2023/05/18 05:50:27;;;;;;;57.57;2.77;;;;;;;;;;5070681;28;20471;-69
2023/05/18 05:52:54;;;;;;;57.57;2.60;;;;;;;;;;5071619;28;20473;-69
2023/05/18 05:55:22;;;;;;;59.30;4.37;;;;;;;;;;5071719;28;20451;-68
2023/05/18 05:57:49;;;;;;;56.60;3.10;;;;;;;;;;5071484;28;20487;-69
2023/05/18 06:00:18;;;;;;;57.13;2.80;;;;;;;;;;5070763;28;20883;-69
2023/05/18 06:02:45;;;;;;;56.87;2.80;;;;;;;;;;5071385;28;20815;-69
2023/05/18 06:05:12;;;;;;;57.50;3.00;;;;;;;;;;5071202;28;20451;-69
2023/05/18 06:07:39;;;;;;;57.10;3.33;;;;;;;;;;5071199;28;20959;-68
2023/05/18 06:10:07;;;;;;;57.23;2.57;;;;;;;;;;5070525;28;20448;-68
2023/05/18 06:12:34;;;;;;;57.70;2.97;;;;;;;;;;5071224;28;21194;-68
2023/05/18 06:15:02;;;;;;;56.70;2.53;;;;;;;;;;5071236;28;20454;-69
2023/05/18 06:17:31;;;;;;;57.23;2.60;;;;;;;;;;5071125;28;20483;-68
2023/05/18 06:19:58;;;;;;;56.97;2.43;;;;;;;;;;5070202;28;20935;-69
2023/05/18 06:22:25;;;;;;;56.93;2.50;;;;;;;;;;5071210;28;20467;-68
2023/05/18 06:24:52;;;;;;;56.87;2.60;;;;;;;;;;5071066;28;20470;-69
2023/05/18 06:27:19;;;;;;;57.47;2.90;;;;;;;;;;5070930;28;20458;-69
2023/05/18 06:29:46;;;;;;;57.50;2.93;;;;;;;;;;5070321;28;20454;-69
2023/05/18 06:32:14;;;;;;;57.20;2.50;;;;;;;;;;5071080;28;20525;-69
2023/05/18 06:34:44;;;;;;;57.20;2.50;;;;;;;;;;5071135;28;20460;-71
2023/05/18 06:37:11;;;;;;;56.93;2.20;;;;;;;;;;5071100;28;20926;-68
2023/05/18 06:39:39;;;;;;;57.20;2.20;;;;;;;;;;5070433;28;20450;-69
2023/05/18 06:42:06;;;;;;;56.97;2.30;;;;;;;;;;5071120;28;20466;-69
2023/05/18 06:44:34;;;;;;;57.30;2.70;;;;;;;;;;5071104;28;20453;-69
2023/05/18 06:47:01;;;;;;;56.97;2.10;;;;;;;;;;5070686;28;20470;-69
2023/05/18 06:49:28;;;;;;;57.20;2.50;;;;;;;;;;5070077;28;20451;-69
2023/05/18 06:51:57;;;;;;;57.10;2.20;;;;;;;;;;5071020;28;20494;-69
2023/05/18 06:54:24;;;;;;;57.03;2.27;;;;;;;;;;5071184;28;20533;-69
2023/05/18 06:56:51;;;;;;;57.07;2.00;;;;;;;;;;5070994;28;20487;-69
2023/05/18 06:59:18;;;;;;;57.17;2.63;;;;;;;;;;5070509;28;20439;-69
2023/05/18 07:01:45;;;;;;;57.37;2.50;;;;;;;;;;5070626;28;20463;-69
2023/05/18 07:04:13;;;;;;;56.90;2.20;;;;;;;;;;5070907;28;20823;-69
2023/05/18 07:06:40;;;;;;;57.07;2.33;;;;;;;;;;5070783;28;20776;-69
2023/05/18 07:09:08;;;;;;;56.97;2.27;;;;;;;;;;5070306;28;20438;-69
2023/05/18 07:11:35;;;;;;;57.07;2.03;;;;;;;;;;5070629;28;20903;-69
2023/05/18 07:14:02;;;;;;;57.70;2.53;;;;;;;;;;5070530;28;20443;-69
2023/05/18 07:16:30;;;;;;;57.17;2.50;;;;;;;;;;5070576;28;20949;-69
2023/05/18 07:18:58;;;;;;;57.40;2.80;;;;;;;;;;5070145;28;20851;-69
2023/05/18 07:21:25;;;;;;;57.50;2.50;;;;;;;;;;5070874;28;20467;-69
2023/05/18 07:23:52;;;;;;;57.07;2.10;;;;;;;;;;5070435;28;20960;-69
2023/05/18 07:26:21;;;;;;;57.27;2.33;;;;;;;;;;5070606;28;20438;-69
2023/05/18 07:28:48;;;;;;;57.00;2.00;;;;;;;;;;5069657;28;20447;-69
2023/05/18 07:31:16;;;;;;;57.27;2.40;;;;;;;;;;5070359;28;20471;-69
2023/05/18 07:33:43;;;;;;;57.03;2.53;;;;;;;;;;5070237;28;20451;-68
2023/05/18 07:36:10;;;;;;;57.00;2.50;;;;;;;;;;5069938;28;20980;-69
2023/05/18 07:38:37;;;;;;;57.47;2.70;;;;;;;;;;5072976;28;20490;-69
2023/05/18 07:41:04;;;;;;;57.07;2.50;;;;;;;;;;5073564;28;20463;-69
2023/05/18 07:43:33;;;;;;;57.40;2.90;;;;;;;;;;5073642;28;20455;-69
2023/05/18 07:46:00;;;;;;;71.23;3.23;;;;;;;;;;5074083;28;20451;-69
2023/05/18 07:48:27;;;;;;;56.80;2.30;;;;;;;;;;5073817;28;20465;-69
2023/05/18 07:50:54;;;;;;;57.50;2.70;;;;;;;;;;5073453;28;20463;-68
2023/05/18 07:53:21;;;;;;;57.07;2.30;;;;;;;;;;5073734;28;20459;-69
2023/05/18 07:55:48;;;;;;;57.60;2.70;;;;;;;;;;5073791;28;20447;-69
2023/05/18 07:58:16;;;;;;;57.87;3.10;;;;;;;;;;5074003;28;20487;-69
2023/05/18 08:00:44;;;;;;;56.97;2.33;;;;;;;;;;5073037;28;20470;-69
2023/05/18 08:03:11;;;;;;;57.70;3.17;;;;;;;;;;5073829;28;20776;-69
2023/05/18 08:05:38;;;;;;;57.33;2.60;;;;;;;;;;5073458;28;20458;-69
2023/05/18 08:08:07;;;;;;;57.30;2.30;;;;;;;;;;5073887;28;20444;-69
2023/05/18 08:10:34;;;;;;;57.00;2.40;;;;;;;;;;5072462;28;20987;-69
2023/05/18 08:13:01;;;;;;;57.47;2.83;;;;;;;;;;5073526;28;20454;-69
2023/05/18 08:15:28;;;;;;;57.40;2.90;;;;;;;;;;5073514;28;20455;-69
2023/05/18 08:17:56;;;;;;;57.97;2.70;;;;;;;;;;5073325;28;20479;-68
2023/05/18 08:20:24;;;;;;;57.10;2.43;;;;;;;;;;5072738;28;20844;-69
2023/05/18 08:22:51;;;;;;;57.33;3.10;;;;;;;;;;5072998;28;20989;-69
2023/05/18 08:25:18;;;;;;;57.67;2.80;;;;;;;;;;5073084;28;20451;-69
2023/05/18 08:27:45;;;;;;;57.23;2.40;;;;;;;;;;5073343;28;20443;-69
2023/05/18 08:30:13;;;;;;;57.27;2.30;;;;;;;;;;5071991;28;20456;-69
2023/05/18 08:32:40;;;;;;;57.53;3.03;;;;;;;;;;5073178;28;20443;-68
2023/05/18 08:35:09;;;;;;;57.20;2.33;;;;;;;;;;5073151;28;20479;-69
2023/05/18 08:37:37;;;;;;;57.17;2.37;;;;;;;;;;5072906;28;20526;-69
2023/05/18 08:40:06;;;;;;;57.30;2.47;;;;;;;;;;5072277;28;20451;-69
2023/05/18 08:42:34;;;;;;;57.10;2.43;;;;;;;;;;5072920;28;20804;-69
2023/05/18 08:45:06;;;;;;;57.07;2.30;;;;;;;;;;5066807;28;20452;-69
2023/05/18 08:47:33;;;;;;;57.50;2.97;;;;;;;;;;5072344;28;20447;-69
2023/05/18 08:50:02;;;;;;;57.13;2.37;;;;;;;;;;5071316;28;20809;-68
2023/05/18 08:52:34;;;;;;;57.00;2.20;;;;;;;;;;5072705;28;20447;-69
2023/05/18 08:55:01;;;;;;;57.03;2.33;;;;;;;;;;5072543;28;20540;-68
2023/05/18 08:57:29;;;;;;;57.07;2.50;;;;;;;;;;5072234;28;20545;-68
2023/05/18 08:59:57;;;;;;;57.73;3.50;;;;;;;;;;5071526;28;20439;-69
2023/05/18 09:02:24;;;;;;;56.97;2.30;;;;;;;;;;5071896;28;20835;-68
2023/05/18 09:04:52;;;;;;;56.73;2.20;;;;;;;;;;5072095;28;20466;-69
2023/05/18 09:07:21;;;;;;;57.50;2.40;;;;;;;;;;5072312;28;20930;-69
2023/05/18 09:09:49;;;;;;;56.97;2.30;;;;;;;;;;5071739;28;20449;-69
2023/05/18 09:12:17;;;;;;;57.10;2.50;;;;;;;;;;5072173;28;20471;-69
2023/05/18 09:14:44;;;;;;;57.27;2.87;;;;;;;;;;5072654;28;20454;-68
2023/05/18 09:17:11;;;;;;;57.20;2.40;;;;;;;;;;5072279;28;20450;-69
2023/05/18 09:19:38;;;;;;;56.77;2.20;;;;;;;;;;5071399;28;20483;-69
2023/05/18 09:22:06;;;;;;;59.50;2.83;;;;;;;;;;5072138;28;20467;-69
2023/05/18 09:24:33;;;;;;;57.53;3.03;;;;;;;;;;5071845;28;20923;-69
2023/05/18 09:27:02;;;;;;;56.60;2.30;;;;;;;;;;5071853;28;20462;-69
2023/05/18 09:29:29;;;;;;;66.83;2.50;;;;;;;;;;5070953;28;20440;-69
2023/05/18 09:31:56;;;;;;;57.20;2.87;;;;;;;;;;5071709;28;20475;-69
2023/05/18 09:34:23;;;;;;;56.90;2.50;;;;;;;;;;5071725;28;20462;-69
2023/05/18 09:36:51;;;;;;;57.70;3.20;;;;;;;;;;5071700;28;20455;-69
2023/05/18 09:39:19;;;;;;;57.03;2.37;;;;;;;;;;5071082;28;20474;-69
2023/05/18 09:41:46;;;;;;;57.07;2.50;;;;;;;;;;5071499;28;20471;-69
2023/05/18 09:44:16;;;;;;;58.47;2.93;;;;;;;;;;5071474;28;20451;-69
2023/05/18 09:46:43;;;;;;;56.87;2.30;;;;;;;;;;5071928;28;20451;-69
2023/05/18 09:49:10;;;;;;;57.17;2.80;;;;;;;;;;5071038;28;20730;-70
2023/05/18 09:51:38;;;;;;;60.13;2.77;;;;;;;;;;5071624;28;20479;-69
2023/05/18 09:54:05;;;;;;;57.70;2.80;;;;;;;;;;5071472;28;20503;-69
2023/05/18 09:56:35;;;;;;;57.50;2.50;;;;;;;;;;5071169;28;20443;-69
2023/05/18 09:59:09;;;;;;;56.97;2.30;;;;;;;;;;5070153;28;20479;-69
2023/05/18 10:01:40;;;;;;;57.77;2.40;;;;;;;;;;5071284;28;20471;-69
2023/05/18 10:04:07;;;;;;;56.67;2.20;;;;;;;;;;5071302;28;20911;-69
2023/05/18 10:06:34;;;;;;;57.07;2.60;;;;;;;;;;5071361;28;20822;-70
2023/05/18 10:09:04;;;;;;;57.10;2.33;;;;;;;;;;5070330;28;20451;-69
2023/05/18 10:11:35;;;;;;;57.00;2.20;;;;;;;;;;5071340;28;20469;-69
2023/05/18 10:14:02;;;;;;;56.67;2.10;;;;;;;;;;5071167;28;20440;-70
2023/05/18 10:16:29;;;;;;;56.90;2.20;;;;;;;;;;5071366;28;20449;-69
2023/05/18 10:18:58;;;;;;;56.77;2.10;;;;;;;;;;5070374;28;20481;-70
2023/05/18 10:21:28;;;;;;;57.07;2.00;;;;;;;;;;5071277;28;20464;-70
2023/05/18 10:23:56;;;;;;;56.57;1.97;;;;;;;;;;5070876;28;20501;-70
2023/05/18 10:26:23;;;;;;;57.77;2.57;;;;;;;;;;5071186;28;20456;-70
2023/05/18 10:28:51;;;;;;;56.63;2.50;;;;;;;;;;5070413;28;20465;-70
2023/05/18 10:31:18;;;;;;;56.90;2.30;;;;;;;;;;5070936;28;20473;-70
2023/05/18 10:33:46;;;;;;;56.53;2.00;;;;;;;;;;5071085;28;20542;-70
2023/05/18 10:36:15;;;;;;;57.60;2.43;;;;;;;;;;5070846;28;20443;-70
2023/05/18 10:38:44;;;;;;;56.53;1.90;;;;;;;;;;5070369;28;20483;-70
2023/05/18 10:41:12;;;;;;;56.73;1.93;;;;;;;;;;5071108;28;20471;-70
2023/05/18 10:43:41;;;;;;;56.67;1.80;;;;;;;;;;5070885;28;20982;-70
2023/05/18 10:46:09;;;;;;;57.00;2.10;;;;;;;;;;5070997;28;20443;-70
2023/05/18 10:48:38;;;;;;;57.37;2.17;;;;;;;;;;5070265;28;20501;-69
2023/05/18 10:51:07;;;;;;;56.50;1.97;;;;;;;;;;5071024;28;20862;-71
2023/05/18 10:53:36;;;;;;;56.47;1.90;;;;;;;;;;5071028;28;20455;-70
2023/05/18 10:56:03;;;;;;;56.80;2.10;;;;;;;;;;5070952;28;20455;-70
2023/05/18 10:58:31;;;;;;;56.63;2.00;;;;;;;;;;5070644;28;20490;-70
2023/05/18 11:00:59;;;;;;;57.60;2.00;;;;;;;;;;5070751;28;20466;-71
2023/05/18 11:03:27;;;;;;;57.07;2.40;;;;;;;;;;5070638;28;20461;-70
2023/05/18 11:06:03;;;;;;;56.50;1.90;;;;;;;;;;5071000;28;20529;-70
2023/05/18 11:08:30;;;;;;;56.47;2.03;;;;;;;;;;5070588;28;20435;-69
2023/05/18 11:11:03;;;;;;;56.43;1.90;;;;;;;;;;5070432;28;20467;-71
2023/05/18 11:13:31;;;;;;;56.30;1.80;;;;;;;;;;5074312;28;20540;-70
2023/05/18 11:16:07;;;;;;;56.47;1.70;;;;;;;;;;5074675;28;20876;-70
2023/05/18 11:18:39;;;;;;;56.47;1.90;;;;;;;;;;5073773;28;21214;-69
2023/05/18 11:21:18;;;;;;;56.43;1.87;;;;;;;;;;5074061;28;20466;-70
2023/05/18 11:24:07;;;;;;;56.57;1.90;;;;;;;;;;5074355;28;20435;-70
2023/05/18 11:26:40;;;;;;;56.30;1.80;;;;;;;;;;5073962;28;20451;-70
2023/05/18 11:29:17;;;;;;;56.53;2.43;;;;;;;;;;5073384;28;20450;-70
2023/05/18 11:31:44;;;;;;;56.57;1.93;;;;;;;;;;5074360;28;20467;-70
2023/05/18 11:34:30;;;;;;;56.63;2.10;;;;;;;;;;5074056;28;20447;-70
2023/05/18 11:36:57;;;;;;;55.77;1.80;;;;;;;;;;5074285;28;20447;-70
2023/05/18 11:39:25;;;;;;;56.67;2.00;;;;;;;;;;5073110;28;21021;-68
2023/05/18 11:42:01;;;;;;;56.37;2.00;;;;;;;;;;5073792;28;20554;-68
2023/05/18 11:44:28;;;;;;;61.00;2.80;;;;;;;;;;5073895;28;20530;-68
2023/05/18 11:47:00;;;;;;;56.70;1.80;;;;;;;;;;5073719;28;20447;-68
2023/05/18 11:49:29;;;;;;;56.33;1.70;;;;;;;;;;5073050;28;20497;-70
2023/05/18 11:52:03;;;;;;;56.50;1.93;;;;;;;;;;5073586;28;20475;-70
2023/05/18 11:54:34;;;;;;;56.80;2.30;;;;;;;;;;5073726;28;20451;-70
2023/05/18 11:57:02;;;;;;;56.43;2.20;;;;;;;;;;5073611;28;20457;-71
2023/05/18 11:59:33;;;;;;;57.67;2.10;;;;;;;;;;5072919;28;20862;-71
2023/05/18 12:02:02;;;;;;;59.20;4.00;;;;;;;;;;5073768;28;20471;-71
2023/05/18 12:04:30;;;;;;;56.27;1.90;;;;;;;;;;5073690;28;20460;-68
2023/05/18 12:06:57;;;;;;;56.13;1.60;;;;;;;;;;5073364;28;20458;-70
2023/05/18 12:09:24;;;;;;;56.27;1.87;;;;;;;;;;5072560;28;20446;-70
2023/05/18 12:11:52;;;;;;;56.43;1.90;;;;;;;;;;5073500;28;20469;-70
2023/05/18 12:14:21;;;;;;;56.47;2.00;;;;;;;;;;5073260;28;21167;-70
2023/05/18 12:16:48;;;;;;;56.47;1.73;;;;;;;;;;5073518;28;20451;-70
2023/05/18 12:19:18;;;;;;;56.60;1.80;;;;;;;;;;5072656;28;20495;-70
2023/05/18 12:21:45;;;;;;;56.53;2.23;;;;;;;;;;5073470;28;20960;-70
2023/05/18 12:24:13;;;;;;;56.80;1.90;;;;;;;;;;5072699;28;20486;-69
2023/05/18 12:26:40;;;;;;;56.70;2.10;;;;;;;;;;5073220;28;20521;-70
2023/05/18 12:29:10;;;;;;;56.37;1.80;;;;;;;;;;5072264;28;20928;-70
2023/05/18 12:31:41;;;;;;;58.00;2.07;;;;;;;;;;5072924;28;20975;-70
2023/05/18 12:34:10;;;;;;;56.83;1.90;;;;;;;;;;5073188;28;20531;-70
2023/05/18 12:36:42;;;;;;;56.77;1.90;;;;;;;;;;5072972;28;20455;-70
2023/05/18 12:39:09;;;;;;;56.60;2.00;;;;;;;;;;5072257;28;20517;-70
2023/05/18 12:41:36;;;;;;;56.50;1.80;;;;;;;;;;5073013;28;20479;-70
2023/05/18 12:44:03;;;;;;;56.47;2.00;;;;;;;;;;5072939;28;20439;-70
2023/05/18 12:46:31;;;;;;;56.27;1.70;;;;;;;;;;5072747;28;20456;-70
2023/05/18 12:49:00;;;;;;;56.63;2.00;;;;;;;;;;5071880;28;20443;-70
2023/05/18 12:51:32;;;;;;;56.30;1.80;;;;;;;;;;5072362;28;20579;-70
2023/05/18 12:53:59;;;;;;;56.30;2.03;;;;;;;;;;5072799;28;20515;-70
2023/05/18 12:56:27;;;;;;;56.23;1.83;;;;;;;;;;5072491;28;20815;-70
2023/05/18 12:58:58;;;;;;;56.80;1.83;;;;;;;;;;5071840;28;20505;-70
2023/05/18 13:01:25;;;;;;;56.60;2.00;;;;;;;;;;5072351;28;20770;-70
2023/05/18 13:03:57;;;;;;;56.60;2.00;;;;;;;;;;5072303;28;20835;-70
2023/05/18 13:06:26;;;;;;;57.30;2.13;;;;;;;;;;5072519;28;20447;-70
2023/05/18 13:08:56;;;;;;;56.63;2.00;;;;;;;;;;5071673;28;20538;-70
2023/05/18 13:11:26;;;;;;;56.53;1.80;;;;;;;;;;5072159;28;20551;-70
2023/05/18 13:14:00;;;;;;;56.47;1.73;;;;;;;;;;5072153;28;20997;-69
2023/05/18 13:16:28;;;;;;;56.70;2.00;;;;;;;;;;5071887;28;20448;-70
2023/05/18 13:18:56;;;;;;;56.60;2.00;;;;;;;;;;5071148;28;20448;-70
2023/05/18 13:21:23;;;;;;;56.40;1.63;;;;;;;;;;5072072;28;20489;-70
2023/05/18 13:23:52;;;;;;;58.17;2.40;;;;;;;;;;5071748;28;20459;-70
2023/05/18 13:26:20;;;;;;;56.47;1.83;;;;;;;;;;5072101;28;20448;-70
2023/05/18 13:28:48;;;;;;;56.57;1.90;;;;;;;;;;5071386;28;20451;-70
2023/05/18 13:31:15;;;;;;;56.70;1.90;;;;;;;;;;5071804;28;20466;-69
2023/05/18 13:33:42;;;;;;;56.57;2.37;;;;;;;;;;5071441;28;20447;-70
2023/05/18 13:36:09;;;;;;;56.40;1.80;;;;;;;;;;5071156;28;20448;-69
2023/05/18 13:38:36;;;;;;;56.30;1.80;;;;;;;;;;5070943;28;20439;-69
2023/05/18 13:41:05;;;;;;;57.87;2.53;;;;;;;;;;5072361;28;20846;-70
2023/05/18 13:43:32;;;;;;;56.40;2.00;;;;;;;;;;5071653;28;20924;-70
2023/05/18 13:46:00;;;;;;;56.90;2.00;;;;;;;;;;5071469;28;20967;-70
2023/05/18 13:48:27;;;;;;;56.70;1.90;;;;;;;;;;5071580;28;20451;-70
2023/05/18 13:50:55;;;;;;;56.70;2.03;;;;;;;;;;5071407;28;20554;-71
2023/05/18 13:53:22;;;;;;;58.07;2.30;;;;;;;;;;5071494;28;20455;-70
2023/05/18 13:55:49;;;;;;;56.60;2.40;;;;;;;;;;5071662;28;20444;-70
2023/05/18 13:58:18;;;;;;;62.80;2.93;;;;;;;;;;5071176;28;20447;-70
2023/05/18 14:00:46;;;;;;;56.57;2.03;;;;;;;;;;5070796;28;20921;-70
2023/05/18 14:03:14;;;;;;;56.57;2.00;;;;;;;;;;5071534;28;20483;-69
2023/05/18 14:05:41;;;;;;;56.43;1.70;;;;;;;;;;5071480;28;20447;-69
2023/05/18 14:08:08;;;;;;;56.80;2.10;;;;;;;;;;5071514;28;20451;-70
2023/05/18 14:10:35;;;;;;;57.43;1.93;;;;;;;;;;5070477;28;20980;-69
2023/05/18 14:13:03;;;;;;;56.23;1.63;;;;;;;;;;5071108;28;20452;-70
2023/05/18 14:15:31;;;;;;;58.70;2.20;;;;;;;;;;5071278;28;20462;-69
2023/05/18 14:17:58;;;;;;;57.00;1.90;;;;;;;;;;5071080;28;20454;-69
2023/05/18 14:20:25;;;;;;;56.80;2.00;;;;;;;;;;5070439;28;20502;-70
2023/05/18 14:22:52;;;;;;;57.50;2.73;;;;;;;;;;5071056;28;20978;-69
2023/05/18 14:25:19;;;;;;;56.57;2.00;;;;;;;;;;5070867;28;20469;-70
2023/05/18 14:27:46;;;;;;;56.27;1.60;;;;;;;;;;5071224;28;20447;-70
2023/05/18 14:30:14;;;;;;;56.57;1.80;;;;;;;;;;5070492;28;20443;-70
2023/05/18 14:32:42;;;;;;;56.40;1.80;;;;;;;;;;5071157;28;20443;-70
2023/05/18 14:35:09;;;;;;;56.50;2.20;;;;;;;;;;5070914;28;20447;-70
2023/05/18 14:37:37;;;;;;;56.40;1.80;;;;;;;;;;5070873;28;21018;-70